createdAt,value
2022-09-07T00:00:16.174Z,96.51
2022-09-07T00:01:16.162Z,97.02
2022-09-07T00:02:16.139Z,96.71
2022-09-07T00:03:16.722Z,96.81
2022-09-07T00:04:16.191Z,96.86
2022-09-07T00:05:16.105Z,96.76
2022-09-07T00:06:16.104Z,96.76
2022-09-07T00:07:16.068Z,96.96
2022-09-07T00:08:16.071Z,97.06
2022-09-07T00:09:16.425Z,97.06
2022-09-07T00:10:16.047Z,96.96
2022-09-07T00:11:16.027Z,96.96
2022-09-07T00:12:16.015Z,96.76
2022-09-07T00:13:16.419Z,96.76
2022-09-07T00:14:15.995Z,96.86
2022-09-07T00:15:15.975Z,96.86
2022-09-07T00:16:16.006Z,96.96
2022-09-07T00:17:15.947Z,97.06
2022-09-07T00:18:15.935Z,97.16
2022-09-07T00:19:16.296Z,97.16
2022-09-07T00:20:15.915Z,97.02
2022-09-07T00:21:15.904Z,97.12
2022-09-07T00:22:15.884Z,97.22
2022-09-07T00:23:16.285Z,97.32
2022-09-07T00:24:15.863Z,97.32
2022-09-07T00:25:15.846Z,97.32
2022-09-07T00:26:15.841Z,97.32
2022-09-07T00:27:15.813Z,97.32
2022-09-07T00:28:15.803Z,97.22
2022-09-07T00:29:16.227Z,96.92
2022-09-07T00:30:15.783Z,96.71
2022-09-07T00:31:15.790Z,96.81
2022-09-07T00:32:15.753Z,97.02
2022-09-07T00:33:16.105Z,97.02
2022-09-07T00:34:15.722Z,97.12
2022-09-07T00:35:15.715Z,97.02
2022-09-07T00:36:15.714Z,97.02
2022-09-07T00:37:15.694Z,97.12
2022-09-07T00:38:15.691Z,97.22
2022-09-07T00:39:16.025Z,97.12
2022-09-07T00:40:15.653Z,97.02
2022-09-07T00:41:15.634Z,96.81
2022-09-07T00:42:15.622Z,96.71
2022-09-07T00:43:16.028Z,96.71
2022-09-07T00:44:15.599Z,96.71
2022-09-07T00:45:15.581Z,96.61
2022-09-07T00:46:15.662Z,96.45
2022-09-07T00:47:15.555Z,96.25
2022-09-07T00:48:15.921Z,96.25
2022-09-07T00:49:15.531Z,96.25
2022-09-07T00:50:15.523Z,96.15
2022-09-07T00:51:15.506Z,96.25
2022-09-07T00:52:15.495Z,96.36
2022-09-07T00:53:15.479Z,96.45
2022-09-07T00:54:15.797Z,96.56
2022-09-07T00:55:15.457Z,96.45
2022-09-07T00:56:15.467Z,96.60
2022-09-07T00:57:15.433Z,96.80
2022-09-07T00:58:15.409Z,96.91
2022-09-07T00:59:15.831Z,96.91
2022-09-07T01:00:15.407Z,97.21
2022-09-07T01:01:15.441Z,97.51
2022-09-07T01:02:15.531Z,97.61
2022-09-07T01:03:15.740Z,97.61
2022-09-07T01:04:15.331Z,97.71
2022-09-07T01:05:15.322Z,98.11
2022-09-07T01:06:15.319Z,98.42
2022-09-07T01:07:15.308Z,98.62
2022-09-07T01:08:15.288Z,98.82
2022-09-07T01:09:15.651Z,98.62
2022-09-07T01:10:15.259Z,98.52
2022-09-07T01:11:15.252Z,98.32
2022-09-07T01:12:15.228Z,98.32
2022-09-07T01:13:15.646Z,98.42
2022-09-07T01:14:15.216Z,98.52
2022-09-07T01:15:15.200Z,98.52
2022-09-07T01:16:15.257Z,98.52
2022-09-07T01:17:15.176Z,98.52
2022-09-07T01:18:15.160Z,98.57
2022-09-07T01:19:15.560Z,98.57
2022-09-07T01:20:15.130Z,98.57
2022-09-07T01:21:15.118Z,98.87
2022-09-07T01:22:15.106Z,99.27
2022-09-07T01:23:15.449Z,99.38
2022-09-07T01:24:15.081Z,99.27
2022-09-07T01:25:15.067Z,99.18
2022-09-07T01:26:15.070Z,99.18
2022-09-07T01:27:15.047Z,99.07
2022-09-07T01:28:15.027Z,98.97
2022-09-07T01:29:15.364Z,99.07
2022-09-07T01:30:15.010Z,99.27
2022-09-07T01:31:14.995Z,99.38
2022-09-07T01:32:14.977Z,99.38
2022-09-07T01:33:15.385Z,99.27
2022-09-07T01:34:14.954Z,99.07
2022-09-07T01:35:14.941Z,98.93
2022-09-07T01:36:14.948Z,98.72
2022-09-07T01:37:14.914Z,98.62
2022-09-07T01:38:14.895Z,98.62
2022-09-07T01:39:15.305Z,98.52
2022-09-07T01:40:14.879Z,98.42
2022-09-07T01:41:14.853Z,98.32
2022-09-07T01:42:14.844Z,98.22
2022-09-07T01:43:15.177Z,98.22
2022-09-07T01:44:14.822Z,98.32
2022-09-07T01:45:14.804Z,98.52
2022-09-07T01:46:14.820Z,98.62
2022-09-07T01:47:14.791Z,98.72
2022-09-07T01:48:14.762Z,98.72
2022-09-07T01:49:15.194Z,98.72
2022-09-07T01:50:14.742Z,98.82
2022-09-07T01:51:14.727Z,98.72
2022-09-07T01:52:14.737Z,98.72
2022-09-07T01:53:15.093Z,98.62
2022-09-07T01:54:14.692Z,98.52
2022-09-07T01:55:14.672Z,98.32
2022-09-07T01:56:14.660Z,97.97
2022-09-07T01:57:14.652Z,97.87
2022-09-07T01:58:14.642Z,97.67
2022-09-07T01:59:14.993Z,97.67
2022-09-07T02:00:14.620Z,97.87
2022-09-07T02:01:14.629Z,97.77
2022-09-07T02:02:14.590Z,97.77
2022-09-07T02:03:15.005Z,97.77
2022-09-07T02:04:14.554Z,97.77
2022-09-07T02:05:14.551Z,97.67
2022-09-07T02:06:14.531Z,97.67
2022-09-07T02:07:14.527Z,97.56
2022-09-07T02:08:14.530Z,97.56
2022-09-07T02:09:14.926Z,97.56
2022-09-07T02:10:14.480Z,97.47
2022-09-07T02:11:14.474Z,97.27
2022-09-07T02:12:14.450Z,97.16
2022-09-07T02:13:14.797Z,97.27
2022-09-07T02:14:14.421Z,97.36
2022-09-07T02:15:14.427Z,97.47
2022-09-07T02:16:14.474Z,97.36
2022-09-07T02:17:14.406Z,97.16
2022-09-07T02:18:14.384Z,96.96
2022-09-07T02:19:14.808Z,96.76
2022-09-07T02:20:14.351Z,96.66
2022-09-07T02:21:14.339Z,96.66
2022-09-07T02:22:14.327Z,96.56
2022-09-07T02:23:14.691Z,96.56
2022-09-07T02:24:14.309Z,96.41
2022-09-07T02:25:14.287Z,96.41
2022-09-07T02:26:14.268Z,96.31
2022-09-07T02:27:14.270Z,96.31
2022-09-07T02:28:14.597Z,96.31
2022-09-07T02:29:14.248Z,96.41
2022-09-07T02:30:14.229Z,96.41
2022-09-07T02:31:14.244Z,96.11
2022-09-07T02:32:14.196Z,95.90
2022-09-07T02:33:14.616Z,95.90
2022-09-07T02:34:14.174Z,96.01
2022-09-07T02:35:14.157Z,96.21
2022-09-07T02:36:14.158Z,96.01
2022-09-07T02:37:14.139Z,96.01
2022-09-07T02:38:14.117Z,95.90
2022-09-07T02:39:14.514Z,95.50
2022-09-07T02:40:14.105Z,95.40
2022-09-07T02:41:14.095Z,95.50
2022-09-07T02:42:14.065Z,95.61
2022-09-07T02:43:14.485Z,95.40
2022-09-07T02:44:14.039Z,95.20
2022-09-07T02:45:14.025Z,95.06
2022-09-07T02:46:14.115Z,95.10
2022-09-07T02:47:14.016Z,95.30
2022-09-07T02:48:14.002Z,95.15
2022-09-07T02:49:14.395Z,95.26
2022-09-07T02:50:13.971Z,95.15
2022-09-07T02:51:13.944Z,94.95
2022-09-07T02:52:13.955Z,94.85
2022-09-07T02:53:14.275Z,94.75
2022-09-07T02:54:13.920Z,94.75
2022-09-07T02:55:13.903Z,94.85
2022-09-07T02:56:13.889Z,94.85
2022-09-07T02:57:13.884Z,94.85
2022-09-07T02:58:13.865Z,94.95
2022-09-07T02:59:14.275Z,94.95
2022-09-07T03:00:13.833Z,95.15
2022-09-07T03:01:13.888Z,95.15
2022-09-07T03:02:13.877Z,95.15
2022-09-07T03:03:14.203Z,95.20
2022-09-07T03:04:13.784Z,95.40
2022-09-07T03:05:13.776Z,95.40
2022-09-07T03:06:13.763Z,95.30
2022-09-07T03:07:13.754Z,95.61
2022-09-07T03:08:13.736Z,95.70
2022-09-07T03:09:14.142Z,95.70
2022-09-07T03:10:13.721Z,95.81
2022-09-07T03:11:13.692Z,95.70
2022-09-07T03:12:13.703Z,95.81
2022-09-07T03:13:13.899Z,95.70
2022-09-07T03:14:13.653Z,95.81
2022-09-07T03:15:13.645Z,95.61
2022-09-07T03:16:13.693Z,95.50
2022-09-07T03:17:13.630Z,95.46
2022-09-07T03:18:13.610Z,95.15
2022-09-07T03:19:13.963Z,95.15
2022-09-07T03:20:13.581Z,95.15
2022-09-07T03:21:13.572Z,94.95
2022-09-07T03:22:13.571Z,94.95
2022-09-07T03:23:13.969Z,94.95
2022-09-07T03:24:13.530Z,95.26
2022-09-07T03:25:13.537Z,96.06
2022-09-07T03:26:13.504Z,96.16
2022-09-07T03:27:13.503Z,96.36
2022-09-07T03:28:13.472Z,96.56
2022-09-07T03:29:13.899Z,96.67
2022-09-07T03:30:13.457Z,96.56
2022-09-07T03:31:13.626Z,96.67
2022-09-07T03:32:13.436Z,96.56
2022-09-07T03:33:13.838Z,96.47
2022-09-07T03:34:13.420Z,96.36
2022-09-07T03:35:14.413Z,96.36
2022-09-07T03:36:13.379Z,95.96
2022-09-07T03:37:13.369Z,95.86
2022-09-07T03:38:13.363Z,95.66
2022-09-07T03:39:13.768Z,95.66
2022-09-07T03:40:13.400Z,95.96
2022-09-07T03:41:13.318Z,95.96
2022-09-07T03:42:13.298Z,95.66
2022-09-07T03:43:13.517Z,95.36
2022-09-07T03:44:13.300Z,95.41
2022-09-07T03:45:13.266Z,95.31
2022-09-07T03:46:13.334Z,95.41
2022-09-07T03:47:13.237Z,95.31
2022-09-07T03:48:13.219Z,95.31
2022-09-07T03:49:13.636Z,95.21
2022-09-07T03:50:13.196Z,94.91
2022-09-07T03:51:13.196Z,94.81
2022-09-07T03:52:13.166Z,95.01
2022-09-07T03:53:13.577Z,95.21
2022-09-07T03:54:13.146Z,95.21
2022-09-07T03:55:13.140Z,95.01
2022-09-07T03:56:13.128Z,94.91
2022-09-07T03:57:13.117Z,94.76
2022-09-07T03:58:13.087Z,94.56
2022-09-07T03:59:13.468Z,94.96
2022-09-07T04:00:13.686Z,94.96
2022-09-07T04:01:13.207Z,94.76
2022-09-07T04:02:13.081Z,94.87
2022-09-07T04:03:13.355Z,94.76
2022-09-07T04:04:13.016Z,94.76
2022-09-07T04:05:13.027Z,94.96
2022-09-07T04:06:12.994Z,94.76
2022-09-07T04:07:12.974Z,94.16
2022-09-07T04:08:13.322Z,93.35
2022-09-07T04:09:12.965Z,92.95
2022-09-07T04:10:12.934Z,92.85
2022-09-07T04:11:12.924Z,92.95
2022-09-07T04:12:12.912Z,93.01
2022-09-07T04:13:13.238Z,93.21
2022-09-07T04:14:12.892Z,93.11
2022-09-07T04:15:12.870Z,93.41
2022-09-07T04:16:12.871Z,93.01
2022-09-07T04:17:12.895Z,92.60
2022-09-07T04:18:12.837Z,93.31
2022-09-07T04:19:13.253Z,93.01
2022-09-07T04:20:12.807Z,92.71
2022-09-07T04:21:12.792Z,93.01
2022-09-07T04:22:12.783Z,92.80
2022-09-07T04:23:13.099Z,92.10
2022-09-07T04:24:12.752Z,92.20
2022-09-07T04:25:12.754Z,92.80
2022-09-07T04:26:12.761Z,92.71
2022-09-07T04:27:12.772Z,92.80
2022-09-07T04:28:12.721Z,93.01
2022-09-07T04:29:13.011Z,93.31
2022-09-07T04:30:12.687Z,93.31
2022-09-07T04:31:12.695Z,93.86
2022-09-07T04:32:15.660Z,93.76
2022-09-07T04:33:13.066Z,94.06
2022-09-07T04:34:12.621Z,94.06
2022-09-07T04:35:12.633Z,94.40
2022-09-07T04:36:12.601Z,94.71
2022-09-07T04:37:12.594Z,95.11
2022-09-07T04:38:12.591Z,95.21
2022-09-07T04:39:12.881Z,95.21
2022-09-07T04:40:12.583Z,95.15
2022-09-07T04:41:12.566Z,95.15
2022-09-07T04:42:12.520Z,95.15
2022-09-07T04:43:12.951Z,95.26
2022-09-07T04:44:16.236Z,95.26
2022-09-07T04:45:12.487Z,95.56
2022-09-07T04:46:12.566Z,96.01
2022-09-07T04:47:12.715Z,96.21
2022-09-07T04:48:12.462Z,96.61
2022-09-07T04:49:12.582Z,96.92
2022-09-07T04:50:12.433Z,97.32
2022-09-07T04:51:12.459Z,97.36
2022-09-07T04:52:12.501Z,97.47
2022-09-07T04:53:12.746Z,97.27
2022-09-07T04:54:12.534Z,97.06
2022-09-07T04:55:12.360Z,97.06
2022-09-07T04:56:16.771Z,97.36
2022-09-07T04:57:12.811Z,97.56
2022-09-07T04:58:12.355Z,97.36
2022-09-07T04:59:12.767Z,97.56
2022-09-07T05:00:12.316Z,97.47
2022-09-07T05:01:12.536Z,97.41
2022-09-07T05:02:12.420Z,97.67
2022-09-07T05:03:12.292Z,97.67
2022-09-07T05:04:12.237Z,97.47
2022-09-07T05:05:12.232Z,97.36
2022-09-07T05:06:12.210Z,97.27
2022-09-07T05:07:12.210Z,97.16
2022-09-07T05:08:12.507Z,97.36
2022-09-07T05:09:12.218Z,97.56
2022-09-07T05:10:12.512Z,97.56
2022-09-07T05:11:12.166Z,97.36
2022-09-07T05:12:12.150Z,97.27
2022-09-07T05:13:12.443Z,97.16
2022-09-07T05:14:12.107Z,97.27
2022-09-07T05:15:12.114Z,97.27
2022-09-07T05:16:12.162Z,97.56
2022-09-07T05:17:12.095Z,97.97
2022-09-07T05:18:12.056Z,97.97
2022-09-07T05:19:12.478Z,97.87
2022-09-07T05:20:12.036Z,97.56
2022-09-07T05:21:12.043Z,97.47
2022-09-07T05:22:12.010Z,97.77
2022-09-07T05:23:12.047Z,97.77
2022-09-07T05:24:11.984Z,97.56
2022-09-07T05:25:11.982Z,97.47
2022-09-07T05:26:11.963Z,97.52
2022-09-07T05:27:11.955Z,97.52
2022-09-07T05:28:14.827Z,97.32
2022-09-07T05:32:11.877Z,97.02
2022-09-07T05:33:12.197Z,96.92
2022-09-07T05:34:32.995Z,97.02
2022-09-07T05:35:12.859Z,97.12
2022-09-07T05:36:11.831Z,96.92
2022-09-07T05:37:11.813Z,96.81
2022-09-07T05:38:12.106Z,96.81
2022-09-07T05:39:11.783Z,96.92
2022-09-07T05:40:11.864Z,97.12
2022-09-07T05:41:11.763Z,97.12
2022-09-07T05:42:11.757Z,96.92
2022-09-07T05:43:12.084Z,96.87
2022-09-07T05:45:12.713Z,96.36
2022-09-07T05:46:11.769Z,96.16
2022-09-07T05:47:11.699Z,95.81
2022-09-07T05:48:11.670Z,95.41
2022-09-07T05:49:12.091Z,95.11
2022-09-07T05:50:11.684Z,94.96
2022-09-07T05:51:11.632Z,94.56
2022-09-07T05:52:11.646Z,94.16
2022-09-07T05:53:11.906Z,93.71
2022-09-07T05:54:11.602Z,93.41
2022-09-07T05:55:28.863Z,93.01
2022-09-07T05:56:12.604Z,92.36
2022-09-07T05:57:11.583Z,91.86
2022-09-07T05:58:11.535Z,91.86
2022-09-07T05:59:11.914Z,91.51
2022-09-07T06:00:11.519Z,90.70
2022-09-07T06:01:11.563Z,90.50
2022-09-07T06:02:11.716Z,90.41
2022-09-07T06:03:12.028Z,90.20
2022-09-07T06:04:11.481Z,89.86
2022-09-07T06:05:11.473Z,89.86
2022-09-07T06:06:11.439Z,89.86
2022-09-07T06:07:21.479Z,89.76
2022-09-07T06:08:12.870Z,89.66
2022-09-07T06:09:11.415Z,89.56
2022-09-07T06:11:12.381Z,89.26
2022-09-07T06:12:11.379Z,89.46
2022-09-07T06:13:11.403Z,89.56
2022-09-07T06:14:11.340Z,89.70
2022-09-07T06:15:11.329Z,90.00
2022-09-07T06:16:11.368Z,90.00
2022-09-07T06:17:11.308Z,90.41
2022-09-07T06:18:11.298Z,90.70
2022-09-07T06:19:11.696Z,90.81
2022-09-07T06:20:11.271Z,90.81
2022-09-07T06:21:11.260Z,90.56
2022-09-07T06:22:11.250Z,88.77
2022-09-07T06:23:11.651Z,86.48
2022-09-07T06:24:11.223Z,85.19
2022-09-07T06:25:11.213Z,83.27
2022-09-07T06:26:11.219Z,81.47
2022-09-07T06:27:11.177Z,80.39
2022-09-07T06:28:11.211Z,78.61
2022-09-07T06:29:11.519Z,77.14
2022-09-07T06:30:11.141Z,77.45
2022-09-07T06:31:11.152Z,79.13
2022-09-07T06:33:12.409Z,81.51
2022-09-07T06:34:11.099Z,80.97
2022-09-07T06:35:11.082Z,79.16
2022-09-07T06:36:11.059Z,76.78
2022-09-07T06:37:11.039Z,75.89
2022-09-07T06:38:11.039Z,75.78
2022-09-07T06:39:11.368Z,75.74
2022-09-07T06:40:11.106Z,75.01
2022-09-07T06:42:12.001Z,76.65
2022-09-07T06:43:11.407Z,74.54
2022-09-07T06:44:10.963Z,72.78
2022-09-07T06:45:10.949Z,70.29
2022-09-07T06:47:11.919Z,69.59
2022-09-07T06:48:11.330Z,70.89
2022-09-07T06:49:10.890Z,72.41
2022-09-07T06:50:10.894Z,72.25
2022-09-07T06:51:10.948Z,73.98
2022-09-07T06:52:10.850Z,73.82
2022-09-07T06:53:35.007Z,74.75
2022-09-07T06:55:11.819Z,75.78
2022-09-07T06:56:10.817Z,76.58
2022-09-07T06:57:10.801Z,76.04
2022-09-07T06:58:10.798Z,74.62
2022-09-07T06:59:11.079Z,74.18
2022-09-07T07:00:10.770Z,72.05
2022-09-07T07:01:10.774Z,69.66
2022-09-07T07:02:10.729Z,68.66
2022-09-07T07:03:11.165Z,69.20
2022-09-07T07:04:10.709Z,70.42
2022-09-07T07:05:10.699Z,70.56
2022-09-07T07:06:10.715Z,71.19
2022-09-07T07:07:10.660Z,71.85
2022-09-07T07:08:10.649Z,72.35
2022-09-07T07:09:10.956Z,72.88
2022-09-07T07:10:10.629Z,72.78
2022-09-07T07:11:10.612Z,73.58
2022-09-07T07:12:10.639Z,73.78
2022-09-07T07:13:11.009Z,73.18
2022-09-07T07:14:10.579Z,72.31
2022-09-07T07:15:10.559Z,70.95
2022-09-07T07:16:10.598Z,70.65
2022-09-07T07:17:10.544Z,69.82
2022-09-07T07:18:20.817Z,69.06
2022-09-07T07:19:11.887Z,67.64
2022-09-07T07:20:10.492Z,66.64
2022-09-07T07:21:10.485Z,66.94
2022-09-07T07:22:29.632Z,66.78
2022-09-07T07:23:12.137Z,65.46
2022-09-07T07:24:10.450Z,65.36
2022-09-07T07:25:10.449Z,65.16
2022-09-07T07:26:10.429Z,64.34
2022-09-07T07:27:10.409Z,62.88
2022-09-07T07:29:14.703Z,60.72
2022-09-07T07:30:10.374Z,60.00
2022-09-07T07:31:13.112Z,59.80
2022-09-07T07:32:10.340Z,59.38
2022-09-07T07:33:10.805Z,59.67
2022-09-07T07:34:10.350Z,59.38
2022-09-07T07:35:10.298Z,58.69
2022-09-07T07:36:10.296Z,59.47
2022-09-07T07:37:10.271Z,58.78
2022-09-07T07:42:11.217Z,59.73
2022-09-07T07:43:10.522Z,61.34
2022-09-07T07:44:10.198Z,61.64
2022-09-07T07:46:11.216Z,59.20
2022-09-07T07:47:10.153Z,58.88
2022-09-07T07:48:10.151Z,58.86
2022-09-07T07:49:10.523Z,58.73
2022-09-07T07:50:33.749Z,58.63
2022-09-07T07:51:12.095Z,58.50
2022-09-07T07:53:41.691Z,57.51
2022-09-07T07:54:11.092Z,57.39
2022-09-07T07:56:11.046Z,56.50
2022-09-07T07:57:10.037Z,57.12
2022-09-07T07:58:10.027Z,56.73
2022-09-07T07:59:15.035Z,56.90
2022-09-07T08:00:10.998Z,56.30
2022-09-07T08:01:10.031Z,56.40
2022-09-07T08:02:10.070Z,56.70
2022-09-07T08:03:10.380Z,56.21
2022-09-07T08:04:09.967Z,56.60
2022-09-07T08:05:09.929Z,56.48
2022-09-07T08:06:09.918Z,56.18
2022-09-07T08:07:11.200Z,56.18
2022-09-07T08:08:09.895Z,56.80
2022-09-07T08:09:10.285Z,56.48
2022-09-07T08:10:09.873Z,56.25
2022-09-07T08:11:09.862Z,56.25
2022-09-07T08:12:10.097Z,55.16
2022-09-07T08:13:10.304Z,55.24
2022-09-07T08:14:09.821Z,55.36
2022-09-07T08:15:09.803Z,55.76
2022-09-07T08:16:09.844Z,56.08
2022-09-07T08:17:09.793Z,56.87
2022-09-07T08:18:10.095Z,57.09
2022-09-07T08:19:09.763Z,57.29
2022-09-07T08:20:09.753Z,56.82
2022-09-07T08:21:09.741Z,58.49
2022-09-07T08:22:09.730Z,60.39
2022-09-07T08:23:10.114Z,60.62
2022-09-07T08:24:09.706Z,61.24
2022-09-07T08:25:09.690Z,62.16
2022-09-07T08:26:09.673Z,62.99
2022-09-07T08:27:09.671Z,63.71
2022-09-07T08:28:09.644Z,64.01
2022-09-07T08:29:10.085Z,64.90
2022-09-07T08:30:09.623Z,64.43
2022-09-07T08:31:09.632Z,64.04
2022-09-07T08:32:09.601Z,64.43
2022-09-07T08:33:09.903Z,64.67
2022-09-07T08:34:09.574Z,65.06
2022-09-07T08:35:09.562Z,65.75
2022-09-07T08:36:09.574Z,65.75
2022-09-07T08:37:09.548Z,66.55
2022-09-07T08:38:09.522Z,66.28
2022-09-07T08:39:09.823Z,65.78
2022-09-07T08:40:09.570Z,65.99
2022-09-07T08:41:09.484Z,66.48
2022-09-07T08:42:09.472Z,66.68
2022-09-07T08:43:09.862Z,66.38
2022-09-07T08:44:09.456Z,66.58
2022-09-07T08:45:09.445Z,66.58
2022-09-07T08:46:09.475Z,66.68
2022-09-07T08:47:09.402Z,66.58
2022-09-07T08:48:09.406Z,66.91
2022-09-07T08:49:09.823Z,67.31
2022-09-07T08:50:09.374Z,67.01
2022-09-07T08:51:09.356Z,67.60
2022-09-07T08:52:09.353Z,66.88
2022-09-07T08:53:09.565Z,67.08
2022-09-07T08:54:09.321Z,67.18
2022-09-07T08:55:09.357Z,66.88
2022-09-07T08:56:09.300Z,66.68
2022-09-07T08:57:22.987Z,66.68
2022-09-07T08:58:22.063Z,66.98
2022-09-07T08:59:10.263Z,66.48
2022-09-07T09:00:09.245Z,66.28
2022-09-07T09:01:32.096Z,66.58
2022-09-07T09:02:40.144Z,66.68
2022-09-07T09:03:31.223Z,66.28
2022-09-07T09:04:18.440Z,66.48
2022-09-07T09:05:18.266Z,66.45
2022-09-07T09:06:10.317Z,66.05
2022-09-07T09:07:09.243Z,65.46
2022-09-07T09:08:09.180Z,65.75
2022-09-07T09:09:09.402Z,66.05
2022-09-07T09:10:09.132Z,65.66
2022-09-07T09:11:09.101Z,65.62
2022-09-07T09:12:09.097Z,65.62
2022-09-07T09:13:09.090Z,65.42
2022-09-07T09:14:09.333Z,64.70
2022-09-07T09:15:09.044Z,63.91
2022-09-07T09:16:09.214Z,64.93
2022-09-07T09:17:09.050Z,65.23
2022-09-07T09:18:11.192Z,65.03
2022-09-07T09:19:10.423Z,66.32
2022-09-07T09:20:09.011Z,65.00
2022-09-07T09:21:08.974Z,64.80
2022-09-07T09:22:08.963Z,63.81
2022-09-07T09:23:08.954Z,63.81
2022-09-07T09:24:09.273Z,63.31
2022-09-07T09:25:08.928Z,62.99
2022-09-07T09:26:08.916Z,62.88
2022-09-07T09:27:08.896Z,63.61
2022-09-07T09:28:08.893Z,63.48
2022-09-07T09:29:09.245Z,63.78
2022-09-07T09:30:08.873Z,63.78
2022-09-07T09:31:08.925Z,62.66
2022-09-07T09:32:08.842Z,63.02
2022-09-07T09:33:08.824Z,62.73
2022-09-07T09:34:09.243Z,61.41
2022-09-07T09:35:08.806Z,61.15
2022-09-07T09:36:08.805Z,62.04
2022-09-07T09:37:08.780Z,62.63
2022-09-07T09:38:08.763Z,62.63
2022-09-07T09:39:09.164Z,61.21
2022-09-07T09:40:08.755Z,61.11
2022-09-07T09:41:08.726Z,60.49
2022-09-07T09:42:08.704Z,60.79
2022-09-07T09:43:08.704Z,59.47
2022-09-07T09:44:08.964Z,60.17
2022-09-07T09:45:08.673Z,59.38
2022-09-07T09:46:14.785Z,59.08
2022-09-07T09:47:31.643Z,59.87
2022-09-07T09:48:09.633Z,59.77
2022-09-07T09:49:09.063Z,59.77
2022-09-07T09:50:08.759Z,59.28
2022-09-07T09:52:38.497Z,59.18
2022-09-07T09:53:09.575Z,59.18
2022-09-07T09:54:08.562Z,58.86
2022-09-07T09:55:33.346Z,58.06
2022-09-07T09:56:09.534Z,58.26
2022-09-07T09:57:08.514Z,58.06
2022-09-07T10:00:12.575Z,57.87
2022-09-07T10:01:25.323Z,57.67
2022-09-07T10:04:13.198Z,58.49
2022-09-07T10:05:09.663Z,58.39
2022-09-07T10:06:08.489Z,57.87
2022-09-07T10:07:08.424Z,58.19
2022-09-07T10:08:08.386Z,58.39
2022-09-07T10:09:08.363Z,58.39
2022-09-07T10:10:08.355Z,58.39
2022-09-07T10:11:08.754Z,58.78
2022-09-07T10:12:08.643Z,58.19
2022-09-07T10:13:08.320Z,58.59
2022-09-07T10:14:08.306Z,58.09
2022-09-07T10:15:08.283Z,58.16
2022-09-07T10:16:08.772Z,58.16
2022-09-07T10:17:08.254Z,57.97
2022-09-07T10:18:08.250Z,57.64
2022-09-07T10:19:08.233Z,57.34
2022-09-07T10:20:08.222Z,57.05
2022-09-07T10:21:08.535Z,56.92
2022-09-07T10:22:08.220Z,57.09
2022-09-07T10:23:08.173Z,56.70
2022-09-07T10:24:08.183Z,56.01
2022-09-07T10:25:08.177Z,55.91
2022-09-07T10:26:08.671Z,55.91
2022-09-07T10:27:08.134Z,56.10
2022-09-07T10:28:08.120Z,55.62
2022-09-07T10:29:08.538Z,55.39
2022-09-07T10:30:08.091Z,55.58
2022-09-07T10:31:13.939Z,55.39
2022-09-07T10:32:09.072Z,55.66
2022-09-07T10:33:08.080Z,54.38
2022-09-07T10:34:27.493Z,53.88
2022-09-07T10:35:09.061Z,53.99
2022-09-07T10:36:08.447Z,54.08
2022-09-07T10:37:08.024Z,54.25
2022-09-07T10:38:08.012Z,53.54
2022-09-07T10:39:07.986Z,53.61
2022-09-07T10:40:07.964Z,52.14
2022-09-07T10:41:08.278Z,52.33
2022-09-07T10:42:07.944Z,52.16
2022-09-07T10:43:22.861Z,52.26
2022-09-07T10:44:09.348Z,52.55
2022-09-07T10:45:07.915Z,52.75
2022-09-07T10:46:08.253Z,52.36
2022-09-07T10:47:07.971Z,52.85
2022-09-07T10:48:07.885Z,51.97
2022-09-07T10:49:07.864Z,53.19
2022-09-07T10:50:23.508Z,53.78
2022-09-07T10:51:14.001Z,53.86
2022-09-07T10:52:08.827Z,52.48
2022-09-07T10:53:36.650Z,52.09
2022-09-07T10:54:31.393Z,51.28
2022-09-07T10:55:08.788Z,51.28
2022-09-07T10:56:07.772Z,50.68
2022-09-07T10:57:08.185Z,51.25
2022-09-07T10:58:07.742Z,50.26
2022-09-07T10:59:07.735Z,50.34
2022-09-07T11:00:08.251Z,49.68
2022-09-07T11:01:07.767Z,49.68
2022-09-07T11:02:08.079Z,50.26
2022-09-07T11:03:27.248Z,50.76
2022-09-07T11:04:08.706Z,50.07
2022-09-07T11:05:07.663Z,50.07
2022-09-07T11:06:07.649Z,50.26
2022-09-07T11:07:09.453Z,51.07
2022-09-07T11:08:07.934Z,50.39
2022-09-07T11:09:16.243Z,50.68
2022-09-07T11:10:08.625Z,50.78
2022-09-07T11:11:07.586Z,50.19
2022-09-07T11:12:07.578Z,50.90
2022-09-07T11:13:08.027Z,50.02
2022-09-07T11:14:13.049Z,50.42
2022-09-07T11:15:08.534Z,51.37
2022-09-07T11:16:07.662Z,51.07
2022-09-07T11:17:07.544Z,50.59
2022-09-07T11:18:07.498Z,50.88
2022-09-07T11:19:36.488Z,50.29
2022-09-07T11:20:08.542Z,49.97
2022-09-07T11:21:07.464Z,49.28
2022-09-07T11:22:07.447Z,49.38
2022-09-07T11:23:07.894Z,48.27
2022-09-07T11:24:07.427Z,47.96
2022-09-07T11:25:30.978Z,47.86
2022-09-07T11:26:08.400Z,47.96
2022-09-07T11:27:07.388Z,47.56
2022-09-07T11:28:07.375Z,48.18
2022-09-07T11:29:30.247Z,47.96
2022-09-07T11:30:08.382Z,46.75
2022-09-07T11:31:07.386Z,46.85
2022-09-07T11:32:07.336Z,46.85
2022-09-07T11:33:07.628Z,46.88
2022-09-07T11:34:25.699Z,46.88
2022-09-07T11:35:08.291Z,46.26
2022-09-07T11:36:11.855Z,46.36
2022-09-07T11:37:08.264Z,46.24
2022-09-07T11:38:07.248Z,45.65
2022-09-07T11:39:07.676Z,45.73
2022-09-07T11:40:07.354Z,45.63
2022-09-07T11:41:07.213Z,45.83
2022-09-07T11:43:11.456Z,46.53
2022-09-07T11:44:07.174Z,46.44
2022-09-07T11:45:07.155Z,46.91
2022-09-07T11:46:07.235Z,46.71
2022-09-07T11:47:07.136Z,46.73
2022-09-07T11:48:07.122Z,47.10
2022-09-07T11:49:07.494Z,47.00
2022-09-07T11:50:07.087Z,46.69
2022-09-07T11:51:07.100Z,46.10
2022-09-07T11:52:07.085Z,44.94
2022-09-07T11:53:07.083Z,45.77
2022-09-07T11:54:07.468Z,47.05
2022-09-07T11:55:07.039Z,46.85
2022-09-07T11:56:07.025Z,46.24
2022-09-07T11:57:07.007Z,46.73
2022-09-07T11:58:06.998Z,45.45
2022-09-07T11:59:07.430Z,45.77
2022-09-07T12:00:06.976Z,45.77
2022-09-07T12:01:06.963Z,46.34
2022-09-07T12:02:07.018Z,45.95
2022-09-07T12:03:06.992Z,46.85
2022-09-07T12:04:07.075Z,49.82
2022-09-07T12:05:06.919Z,51.86
2022-09-07T12:06:06.897Z,52.36
2022-09-07T12:07:06.920Z,51.99
2022-09-07T12:08:06.886Z,53.00
2022-09-07T12:09:07.303Z,53.22
2022-09-07T12:10:06.859Z,53.81
2022-09-07T12:11:06.846Z,53.74
2022-09-07T12:12:06.837Z,54.43
2022-09-07T12:13:06.826Z,54.82
2022-09-07T12:14:06.822Z,54.85
2022-09-07T12:15:07.137Z,54.63
2022-09-07T12:16:06.817Z,54.23
2022-09-07T12:17:06.777Z,53.64
2022-09-07T12:18:06.753Z,54.23
2022-09-07T12:19:06.755Z,54.03
2022-09-07T12:20:07.116Z,54.36
2022-09-07T12:21:06.727Z,54.36
2022-09-07T12:22:06.697Z,53.47
2022-09-07T12:23:06.698Z,54.78
2022-09-07T12:24:06.677Z,55.60
2022-09-07T12:25:06.986Z,55.69
2022-09-07T12:26:06.648Z,55.60
2022-09-07T12:27:06.640Z,55.20
2022-09-07T12:28:06.626Z,55.00
2022-09-07T12:29:06.618Z,54.28
2022-09-07T12:30:06.626Z,54.38
2022-09-07T12:31:06.665Z,54.16
2022-09-07T12:32:53.238Z,54.06
2022-09-07T12:33:07.591Z,53.74
2022-09-07T12:34:06.557Z,53.42
2022-09-07T12:35:06.847Z,52.83
2022-09-07T12:36:06.528Z,53.32
2022-09-07T12:37:11.651Z,52.63
2022-09-07T12:38:07.504Z,52.61
2022-09-07T12:39:06.500Z,52.23
2022-09-07T12:40:06.876Z,51.97
2022-09-07T12:41:06.477Z,52.26
2022-09-07T12:42:33.035Z,52.56
2022-09-07T12:43:09.832Z,52.23
2022-09-07T12:44:06.424Z,51.74
2022-09-07T12:45:06.727Z,51.84
2022-09-07T12:46:06.475Z,51.72
2022-09-07T12:47:06.383Z,51.59
2022-09-07T12:48:06.379Z,50.88
2022-09-07T12:49:06.362Z,50.39
2022-09-07T12:50:06.676Z,50.39
2022-09-07T12:51:06.364Z,49.52
2022-09-07T12:52:15.285Z,49.23
2022-09-07T12:53:07.322Z,49.73
2022-09-07T12:54:06.289Z,49.30
2022-09-07T12:55:26.656Z,48.13
2022-09-07T12:56:17.698Z,48.91
2022-09-07T12:57:30.515Z,49.30
2022-09-07T12:58:07.245Z,48.32
2022-09-07T12:59:06.229Z,49.11
2022-09-07T13:00:06.229Z,48.83
2022-09-07T13:01:06.418Z,48.74
2022-09-07T13:02:06.276Z,49.01
2022-09-07T13:03:06.264Z,48.52
2022-09-07T13:04:06.165Z,49.90
2022-09-07T13:05:06.407Z,50.76
2022-09-07T13:06:06.543Z,50.04
2022-09-07T13:07:06.135Z,48.74
2022-09-07T13:08:09.028Z,46.78
2022-09-07T13:09:06.116Z,47.69
2022-09-07T13:10:06.105Z,47.09
2022-09-07T13:11:06.456Z,47.07
2022-09-07T13:12:07.238Z,47.27
2022-09-07T13:13:06.066Z,47.27
2022-09-07T13:14:08.844Z,47.36
2022-09-07T13:15:06.034Z,46.41